Time;durP1;ratioP1;P1;durP2;ratioP2;P2;SDS_P1;SDS_P2;PMS_P1;PMS_P2;Temp;Humidity;BMP_temperature;BMP_pressure;BME280_temperature;BME280_humidity;BME280_pressure;Samples;Min_cycle;Max_cycle;Signal;HPM_P1;HPM_P2
2022/04/08 00:01:34;;;;;;;7.45;1.50;;;7.10;84.80;;;;;;5057622;28;20036;-60
2022/04/08 00:04:00;;;;;;;7.55;1.23;;;7.00;84.80;;;;;;5071617;28;20484;-59
2022/04/08 00:06:25;;;;;;;7.18;1.70;;;7.00;84.80;;;;;;5064173;28;20081;-61
2022/04/08 00:08:51;;;;;;;9.20;1.50;;;7.00;84.90;;;;;;5058248;28;20029;-60
2022/04/08 00:11:17;;;;;;;11.05;2.05;;;7.00;84.80;;;;;;5062086;28;20040;-60
2022/04/08 00:13:43;;;;;;;6.97;1.20;;;7.00;84.80;;;;;;5052874;28;20035;-60
2022/04/08 00:16:09;;;;;;;7.30;1.40;;;7.00;84.80;;;;;;5053551;28;20105;-60
2022/04/08 00:18:36;;;;;;;8.30;1.58;;;7.00;84.80;;;;;;5056395;28;20202;-60
2022/04/08 00:21:03;;;;;;;7.53;1.58;;;7.10;84.70;;;;;;5071929;28;20552;-59
2022/04/08 00:23:29;;;;;;;6.88;1.20;;;7.10;84.80;;;;;;5101353;28;20185;-59
2022/04/08 00:25:55;;;;;;;7.22;1.30;;;7.10;84.90;;;;;;5091798;28;20526;-60
2022/04/08 00:28:21;;;;;;;4.80;1.30;;;7.20;84.80;;;;;;5093860;28;20115;-60
2022/04/08 00:30:47;;;;;;;7.78;1.30;;;7.20;84.60;;;;;;5108444;28;20039;-60
2022/04/08 00:33:13;;;;;;;7.60;1.30;;;7.10;84.30;;;;;;5110601;28;20032;-58
2022/04/08 00:35:38;;;;;;;6.80;1.17;;;7.10;84.20;;;;;;5093496;28;20028;-58
2022/04/08 00:38:04;;;;;;;9.52;1.42;;;7.10;84.30;;;;;;5061116;28;20249;-58
2022/04/08 00:40:30;;;;;;;6.65;2.35;;;7.10;84.30;;;;;;5081779;28;20040;-59
2022/04/08 00:42:56;;;;;;;7.82;1.20;;;7.10;84.40;;;;;;5090122;28;20020;-59
2022/04/08 00:45:21;;;;;;;8.48;1.17;;;7.10;84.40;;;;;;5103424;28;20476;-59
2022/04/08 00:47:48;;;;;;;10.52;1.88;;;7.10;84.40;;;;;;5095243;28;20032;-58
2022/04/08 00:50:14;;;;;;;10.45;1.40;;;7.10;84.20;;;;;;5094644;28;20036;-59
2022/04/08 00:52:42;;;;;;;7.32;1.50;;;7.10;83.90;;;;;;5092644;28;20485;-57
2022/04/08 00:55:10;;;;;;;6.32;1.30;;;7.10;83.60;;;;;;5111402;28;20032;-58
2022/04/08 00:57:36;;;;;;;5.88;2.03;;;7.10;83.30;;;;;;5110170;28;20032;-58
2022/04/08 01:00:08;;;;;;;7.90;1.70;;;7.00;82.60;;;;;;5094042;28;20059;-58
2022/04/08 01:02:34;;;;;;;6.30;1.30;;;7.00;82.60;;;;;;5090605;28;20571;-59
2022/04/08 01:05:00;;;;;;;6.97;1.45;;;7.00;82.50;;;;;;5091291;28;20107;-58
2022/04/08 01:07:26;;;;;;;8.05;1.65;;;6.90;81.60;;;;;;5091464;28;20028;-58
2022/04/08 01:09:52;;;;;;;8.68;1.30;;;6.90;81.70;;;;;;5091952;28;20566;-60
2022/04/08 01:12:18;;;;;;;8.10;1.30;;;7.00;81.80;;;;;;5090614;28;20103;-61
2022/04/08 01:14:44;;;;;;;6.70;1.40;;;7.00;81.80;;;;;;5100935;28;20119;-59
2022/04/08 01:17:10;;;;;;;9.30;1.92;;;7.00;81.70;;;;;;5094756;28;20493;-59
2022/04/08 01:19:35;;;;;;;7.45;1.70;;;7.00;81.60;;;;;;5090877;28;20088;-59
2022/04/08 01:22:02;;;;;;;8.07;1.15;;;7.00;81.60;;;;;;5090556;28;20052;-59
2022/04/08 01:24:30;;;;;;;7.47;2.03;;;7.00;82.20;;;;;;5090630;28;20032;-59
2022/04/08 01:26:56;;;;;;;11.02;1.55;;;7.00;81.70;;;;;;5098947;28;20543;-59
2022/04/08 01:29:22;;;;;;;7.00;2.03;;;7.00;81.60;;;;;;5103359;28;20036;-59
2022/04/08 01:31:47;;;;;;;6.65;1.45;;;7.00;81.40;;;;;;5089681;28;20139;-59
2022/04/08 01:34:13;;;;;;;7.57;1.40;;;7.00;81.40;;;;;;5099955;28;20031;-58
2022/04/08 01:36:40;;;;;;;10.43;1.60;;;6.90;81.40;;;;;;5109404;28;20031;-58
2022/04/08 01:39:06;;;;;;;12.70;2.00;;;6.80;81.10;;;;;;5108152;28;20084;-61
2022/04/08 01:41:32;;;;;;;7.32;1.75;;;6.80;81.10;;;;;;5078583;28;20035;-58
2022/04/08 01:43:58;;;;;;;11.60;1.90;;;6.80;81.00;;;;;;5097159;28;20059;-58
2022/04/08 01:46:24;;;;;;;8.82;2.00;;;6.70;81.00;;;;;;5092497;28;20090;-59
2022/04/08 01:48:53;;;;;;;13.80;2.70;;;6.80;80.90;;;;;;5096984;28;20031;-59
2022/04/08 01:51:19;;;;;;;11.50;1.90;;;6.70;80.80;;;;;;5108814;28;20432;-58
2022/04/08 01:53:45;;;;;;;9.32;2.10;;;6.60;80.80;;;;;;5096805;28;20582;-58
2022/04/08 01:56:11;;;;;;;8.27;1.83;;;6.60;80.80;;;;;;5097002;28;20028;-58
2022/04/08 01:58:37;;;;;;;12.35;2.25;;;6.60;80.70;;;;;;5103371;28;20168;-61
2022/04/08 02:01:03;;;;;;;9.40;2.67;;;6.60;80.50;;;;;;5077386;28;20028;-61
2022/04/08 02:03:29;;;;;;;9.82;1.70;;;6.50;80.20;;;;;;5057664;28;20081;-62
2022/04/08 02:05:55;;;;;;;10.98;1.90;;;6.50;80.20;;;;;;5084046;28;20387;-58
2022/04/08 02:08:20;;;;;;;8.90;1.92;;;6.50;80.20;;;;;;5098443;28;20027;-61
2022/04/08 02:10:46;;;;;;;7.88;1.98;;;6.50;80.20;;;;;;5108197;28;20490;-61
2022/04/08 02:13:12;;;;;;;9.63;1.55;;;6.40;80.10;;;;;;5101344;28;20537;-61
2022/04/08 02:15:37;;;;;;;6.93;1.55;;;6.40;80.00;;;;;;5097309;28;20036;-61
2022/04/08 02:18:04;;;;;;;11.77;2.55;;;6.40;80.00;;;;;;5083750;28;20042;-58
2022/04/08 02:20:31;;;;;;;11.55;1.92;;;6.40;80.00;;;;;;5051722;28;20124;-58
2022/04/08 02:22:58;;;;;;;14.20;2.40;;;6.40;79.80;;;;;;5083632;28;20495;-61
2022/04/08 02:25:25;;;;;;;13.85;2.22;;;6.30;79.80;;;;;;5105778;28;20023;-61
2022/04/08 02:27:51;;;;;;;10.90;2.50;;;6.30;80.00;;;;;;5090196;28;20031;-61
2022/04/08 02:30:17;;;;;;;16.33;2.10;;;6.30;80.00;;;;;;5089605;28;20028;-61
2022/04/08 02:32:43;;;;;;;14.60;1.98;;;6.30;80.10;;;;;;5081787;28;20030;-61
2022/04/08 02:35:08;;;;;;;12.25;1.90;;;6.30;80.00;;;;;;5092179;28;20434;-59
2022/04/08 02:37:34;;;;;;;12.50;2.13;;;6.30;80.20;;;;;;5102023;28;20619;-58
2022/04/08 02:40:00;;;;;;;13.05;2.22;;;6.20;80.00;;;;;;5090947;28;20031;-58
2022/04/08 02:42:25;;;;;;;9.63;1.40;;;6.20;80.10;;;;;;5079842;28;20043;-58
2022/04/08 02:44:51;;;;;;;10.95;2.20;;;6.20;80.20;;;;;;5097699;28;20059;-59
2022/04/08 02:47:17;;;;;;;12.73;2.40;;;6.20;80.20;;;;;;5108174;28;20115;-61
2022/04/08 02:49:44;;;;;;;8.93;2.00;;;6.20;80.30;;;;;;5102302;28;20027;-59
2022/04/08 02:52:10;;;;;;;13.40;2.58;;;6.20;80.40;;;;;;5103088;28;20031;-58
2022/04/08 02:54:35;;;;;;;12.73;2.40;;;6.20;80.60;;;;;;5081534;28;20032;-59
2022/04/08 02:57:01;;;;;;;13.00;2.15;;;6.20;80.50;;;;;;5089374;28;20047;-59
2022/04/08 02:59:27;;;;;;;9.95;2.40;;;6.10;80.60;;;;;;5073229;28;20133;-59
2022/04/08 03:01:52;;;;;;;11.68;2.00;;;6.10;80.80;;;;;;5099793;28;20467;-61
2022/04/08 03:04:18;;;;;;;15.60;2.10;;;6.10;81.10;;;;;;5089152;28;20524;-58
2022/04/08 03:06:43;;;;;;;15.65;2.20;;;6.10;81.40;;;;;;5086865;28;20093;-58
2022/04/08 03:09:09;;;;;;;15.80;2.67;;;6.10;81.50;;;;;;5088913;28;20028;-58
2022/04/08 03:11:35;;;;;;;15.20;2.35;;;6.10;81.60;;;;;;5082965;28;20039;-62
2022/04/08 03:14:02;;;;;;;11.23;1.98;;;6.10;81.70;;;;;;5104899;28;20089;-61
2022/04/08 03:16:29;;;;;;;15.25;2.00;;;6.10;81.70;;;;;;5090309;28;20127;-61
2022/04/08 03:18:54;;;;;;;15.02;2.22;;;6.10;81.90;;;;;;5088803;28;20059;-61
2022/04/08 03:21:20;;;;;;;7.05;1.77;;;6.10;81.80;;;;;;5099004;28;20063;-58
2022/04/08 03:23:47;;;;;;;12.48;2.10;;;6.10;81.70;;;;;;5106765;28;20557;-59
2022/04/08 03:26:12;;;;;;;9.23;1.67;;;6.10;81.60;;;;;;5107974;28;20023;-59
2022/04/08 03:28:38;;;;;;;12.90;2.25;;;6.10;81.20;;;;;;5108660;28;20031;-58
2022/04/08 03:31:04;;;;;;;15.40;1.98;;;6.10;81.20;;;;;;5107503;28;20031;-59
2022/04/08 03:33:29;;;;;;;9.20;2.17;;;6.10;80.80;;;;;;5073822;28;20390;-58
2022/04/08 03:35:55;;;;;;;8.68;2.63;;;6.10;80.80;;;;;;5099026;28;20528;-58
2022/04/08 03:38:21;;;;;;;5.65;1.58;;;6.10;80.50;;;;;;5085950;28;20085;-59
2022/04/08 03:40:49;;;;;;;5.80;1.33;;;6.10;79.80;;;;;;5088008;28;20085;-61
2022/04/08 03:43:15;;;;;;;8.65;1.38;;;6.10;79.60;;;;;;5103615;28;20443;-58
2022/04/08 03:45:41;;;;;;;8.13;1.50;;;6.00;79.70;;;;;;5092462;28;20095;-58
2022/04/08 03:48:10;;;;;;;9.63;1.48;;;6.10;79.80;;;;;;5081874;28;20036;-58
2022/04/08 03:50:35;;;;;;;5.72;1.50;;;6.10;79.80;;;;;;5076075;28;20107;-58
2022/04/08 03:53:01;;;;;;;5.28;1.67;;;6.10;79.80;;;;;;5089946;28;20119;-58
2022/04/08 03:55:27;;;;;;;10.55;1.63;;;6.10;79.80;;;;;;5090199;28;20032;-58
2022/04/08 03:57:53;;;;;;;9.07;1.52;;;6.00;79.80;;;;;;5097615;28;20043;-61
2022/04/08 04:00:18;;;;;;;5.95;1.20;;;6.00;79.80;;;;;;5095274;28;20024;-61
2022/04/08 04:02:44;;;;;;;6.68;1.65;;;6.00;79.90;;;;;;5092677;28;20134;-61
2022/04/08 04:05:10;;;;;;;8.68;1.58;;;6.00;80.10;;;;;;5107435;28;20036;-58
2022/04/08 04:07:36;;;;;;;7.57;1.70;;;5.90;80.00;;;;;;5104957;28;20059;-61
2022/04/08 04:10:02;;;;;;;8.35;1.73;;;5.90;80.10;;;;;;5080695;28;20059;-59
2022/04/08 04:12:28;;;;;;;8.93;1.40;;;5.90;80.30;;;;;;5078693;28;20066;-59
2022/04/08 04:14:55;;;;;;;9.18;1.80;;;5.90;80.40;;;;;;5089585;28;20036;-58
2022/04/08 04:17:22;;;;;;;8.15;2.42;;;5.90;80.40;;;;;;5077380;28;20119;-59
2022/04/08 04:19:48;;;;;;;10.85;1.60;;;5.90;80.40;;;;;;5074239;28;20032;-61
2022/04/08 04:22:14;;;;;;;5.20;1.10;;;5.80;80.40;;;;;;5080190;28;20116;-62
2022/04/08 04:24:39;;;;;;;10.85;1.73;;;5.80;80.50;;;;;;5076938;28;20107;-61
2022/04/08 04:27:05;;;;;;;5.65;1.73;;;5.80;80.60;;;;;;5088603;28;20031;-61
2022/04/08 04:29:31;;;;;;;7.10;1.88;;;5.80;80.80;;;;;;5091876;28;20027;-61
2022/04/08 04:31:59;;;;;;;5.40;1.50;;;5.80;80.80;;;;;;5095441;28;20024;-58
2022/04/08 04:34:25;;;;;;;7.28;2.10;;;5.80;80.90;;;;;;5090140;28;20425;-59
2022/04/08 04:36:51;;;;;;;6.93;2.13;;;5.70;81.00;;;;;;5112507;28;20039;-59
2022/04/08 04:39:17;;;;;;;4.57;1.48;;;5.70;81.10;;;;;;5075584;28;20040;-61
2022/04/08 04:41:42;;;;;;;6.43;1.50;;;5.70;81.30;;;;;;5104632;28;20474;-59
2022/04/08 04:44:08;;;;;;;7.03;1.65;;;5.70;81.50;;;;;;5098612;28;20486;-61
2022/04/08 04:46:34;;;;;;;6.63;1.90;;;5.70;81.60;;;;;;5099994;28;20546;-61
2022/04/08 04:49:00;;;;;;;3.75;1.48;;;5.60;81.60;;;;;;5109743;28;20056;-59
2022/04/08 04:51:26;;;;;;;4.03;1.38;;;5.60;81.80;;;;;;5078906;28;20031;-58
2022/04/08 04:53:52;;;;;;;6.53;1.40;;;5.60;81.90;;;;;;5089413;28;20090;-59
2022/04/08 04:56:18;;;;;;;9.57;1.77;;;5.60;81.90;;;;;;5088950;28;20138;-59
2022/04/08 04:58:43;;;;;;;5.97;1.48;;;5.50;82.00;;;;;;5091356;28;20418;-59
2022/04/08 05:01:09;;;;;;;5.72;1.50;;;5.50;82.10;;;;;;5073565;28;20028;-61
2022/04/08 05:03:34;;;;;;;6.50;1.77;;;5.50;82.20;;;;;;5090661;28;20566;-59
2022/04/08 05:06:00;;;;;;;5.80;1.77;;;5.50;82.30;;;;;;5073233;28;20375;-59
2022/04/08 05:08:26;;;;;;;3.70;1.58;;;5.50;82.40;;;;;;5091493;28;20028;-59
2022/04/08 05:10:51;;;;;;;8.50;2.05;;;5.50;82.50;;;;;;5072736;28;20483;-58
2022/04/08 05:13:18;;;;;;;9.45;2.38;;;5.50;82.50;;;;;;5090873;28;20487;-58
2022/04/08 05:15:45;;;;;;;6.65;2.42;;;5.50;82.60;;;;;;5091204;28;20103;-58
2022/04/08 05:18:12;;;;;;;5.75;1.98;;;5.50;82.70;;;;;;5093005;28;20111;-61
2022/04/08 05:20:38;;;;;;;9.85;2.65;;;5.50;82.80;;;;;;5090865;28;20043;-58
2022/04/08 05:23:03;;;;;;;8.75;2.35;;;5.50;82.80;;;;;;5093007;28;20075;-59
2022/04/08 05:25:29;;;;;;;7.30;2.33;;;5.40;82.90;;;;;;5090652;28;20029;-58
2022/04/08 05:27:55;;;;;;;12.18;2.17;;;5.50;83.00;;;;;;5099222;28;20470;-59
2022/04/08 05:30:21;;;;;;;7.78;2.25;;;5.50;83.10;;;;;;5094800;28;20028;-59
2022/04/08 05:32:48;;;;;;;12.45;2.72;;;5.50;83.10;;;;;;5097609;28;20027;-59
2022/04/08 05:35:17;;;;;;;7.53;2.45;;;5.50;83.20;;;;;;5099565;28;20101;-59
2022/04/08 05:37:45;;;;;;;8.90;2.47;;;5.50;83.30;;;;;;5061286;28;20033;-59
2022/04/08 05:40:14;;;;;;;7.75;2.38;;;5.40;83.30;;;;;;5072265;28;20032;-59
2022/04/08 05:42:42;;;;;;;13.43;2.72;;;5.50;83.40;;;;;;5090179;28;20031;-59
2022/04/08 05:45:09;;;;;;;9.57;2.70;;;5.40;83.40;;;;;;5087427;28;20027;-59
2022/04/08 05:47:35;;;;;;;7.60;2.33;;;5.50;83.50;;;;;;5104202;28;20039;-59
2022/04/08 05:50:01;;;;;;;8.10;2.30;;;5.50;83.50;;;;;;5090545;28;20430;-61
2022/04/08 05:52:26;;;;;;;10.70;3.17;;;5.50;83.50;;;;;;5089988;28;20107;-61
2022/04/08 05:54:52;;;;;;;6.53;2.30;;;5.50;83.50;;;;;;5089778;28;20032;-59
2022/04/08 05:57:23;;;;;;;9.02;2.45;;;5.60;83.50;;;;;;5072156;28;20028;-58
2022/04/08 05:59:48;;;;;;;9.15;3.00;;;5.60;83.40;;;;;;5104564;28;20080;-61
2022/04/08 06:02:15;;;;;;;12.57;2.65;;;5.60;84.00;;;;;;5099769;28;20039;-59
2022/04/08 06:04:41;;;;;;;8.05;2.50;;;5.60;83.40;;;;;;5090355;28;20012;-59
2022/04/08 06:07:07;;;;;;;7.50;2.63;;;5.70;83.40;;;;;;5106154;28;20570;-59
2022/04/08 06:09:33;;;;;;;11.40;2.72;;;5.70;83.30;;;;;;5108463;28;20755;-62
2022/04/08 06:11:59;;;;;;;12.18;2.70;;;5.70;83.30;;;;;;5083210;28;20412;-61
2022/04/08 06:14:26;;;;;;;8.45;2.85;;;5.70;83.30;;;;;;5097499;28;20027;-61
2022/04/08 06:16:55;;;;;;;8.57;2.40;;;5.80;83.30;;;;;;5109780;28;20042;-59
2022/04/08 06:19:21;;;;;;;9.52;2.75;;;5.80;83.30;;;;;;5104177;28;20036;-61
2022/04/08 06:21:46;;;;;;;6.93;2.60;;;5.80;83.20;;;;;;5054341;28;20475;-61
2022/04/08 06:24:12;;;;;;;11.70;2.38;;;5.80;83.20;;;;;;5091075;28;21962;-61
2022/04/08 06:26:39;;;;;;;12.40;2.90;;;5.80;83.20;;;;;;5089454;28;20021;-61
2022/04/08 06:29:05;;;;;;;10.65;3.40;;;5.90;83.00;;;;;;5097233;28;20035;-61
2022/04/08 06:31:32;;;;;;;9.00;2.90;;;5.90;83.00;;;;;;5076664;28;20395;-62
2022/04/08 06:33:59;;;;;;;9.80;2.95;;;5.90;83.10;;;;;;5089256;28;20028;-61
2022/04/08 06:36:26;;;;;;;9.15;2.55;;;6.00;83.00;;;;;;5089470;28;20036;-61
2022/04/08 06:38:52;;;;;;;11.05;2.70;;;6.00;83.00;;;;;;5054325;28;20039;-61
2022/04/08 06:41:18;;;;;;;7.07;2.63;;;6.00;83.00;;;;;;5098431;28;20379;-61
2022/04/08 06:43:43;;;;;;;9.20;2.67;;;6.00;82.80;;;;;;5107649;28;20028;-62
2022/04/08 06:46:09;;;;;;;9.07;3.03;;;6.00;82.70;;;;;;5102520;28;20036;-61
2022/04/08 06:48:34;;;;;;;7.72;2.67;;;6.00;82.70;;;;;;5089348;28;20066;-61
2022/04/08 06:51:04;;;;;;;12.85;3.03;;;6.10;82.70;;;;;;5094123;28;20437;-61
2022/04/08 06:53:30;;;;;;;6.68;2.92;;;6.10;82.70;;;;;;5089932;28;20032;-61
2022/04/08 06:55:56;;;;;;;9.60;2.50;;;6.10;82.60;;;;;;5109144;28;20157;-61
2022/04/08 06:58:26;;;;;;;9.57;2.88;;;6.20;82.50;;;;;;5107701;28;20546;-61
2022/04/08 07:00:52;;;;;;;8.18;2.65;;;6.20;82.40;;;;;;5100677;28;20078;-61
2022/04/08 07:03:18;;;;;;;8.80;2.65;;;6.30;82.30;;;;;;5088621;28;20058;-61
2022/04/08 07:05:43;;;;;;;7.15;3.15;;;6.40;81.90;;;;;;5091159;28;20063;-59
2022/04/08 07:08:09;;;;;;;8.68;2.85;;;6.40;81.70;;;;;;5091518;28;20553;-58
2022/04/08 07:10:35;;;;;;;10.57;2.80;;;6.40;81.70;;;;;;5095793;28;20430;-58
2022/04/08 07:13:01;;;;;;;9.52;2.70;;;6.50;81.70;;;;;;5088898;28;20027;-59
2022/04/08 07:15:26;;;;;;;6.85;2.25;;;6.50;81.60;;;;;;5095567;28;20063;-59
2022/04/08 07:17:52;;;;;;;7.93;2.53;;;6.60;81.60;;;;;;5101575;28;20028;-61
2022/04/08 07:20:18;;;;;;;8.20;2.22;;;6.60;81.70;;;;;;5085164;28;20031;-61
2022/04/08 07:22:44;;;;;;;5.60;2.17;;;6.70;81.50;;;;;;5079384;28;20040;-61
2022/04/08 07:25:11;;;;;;;7.68;2.10;;;6.70;81.10;;;;;;5072541;28;20046;-61
2022/04/08 07:27:47;;;;;;;5.80;2.05;;;6.80;81.70;;;;;;5078674;28;20036;-59
2022/04/08 07:30:15;;;;;;;7.07;2.40;;;6.90;80.80;;;;;;5078666;28;20035;-61
2022/04/08 07:32:41;;;;;;;9.20;3.13;;;6.90;80.50;;;;;;5071402;28;20386;-60
2022/04/08 07:35:08;;;;;;;8.38;2.20;;;7.00;80.50;;;;;;5059758;28;20035;-60
2022/04/08 07:37:34;;;;;;;7.50;2.25;;;7.00;80.30;;;;;;5085875;28;20123;-60
2022/04/08 07:40:00;;;;;;;6.43;2.85;;;7.00;80.20;;;;;;5073523;28;20104;-60
2022/04/08 07:42:26;;;;;;;8.30;2.03;;;7.10;80.00;;;;;;5079418;28;20024;-60
2022/04/08 07:44:52;;;;;;;4.50;2.20;;;7.10;79.70;;;;;;5081773;28;20498;-60
2022/04/08 07:47:20;;;;;;;6.18;2.25;;;7.10;79.60;;;;;;5059809;28;20286;-60
2022/04/08 07:49:49;;;;;;;7.95;2.53;;;7.20;79.60;;;;;;5059522;28;20031;-59
2022/04/08 07:52:14;;;;;;;9.40;2.33;;;7.20;79.60;;;;;;5095875;28;20054;-59
2022/04/08 07:54:40;;;;;;;9.95;2.85;;;7.20;79.50;;;;;;5067710;28;20032;-60
2022/04/08 07:57:06;;;;;;;7.55;2.28;;;7.30;79.20;;;;;;5067788;28;20391;-61
2022/04/08 07:59:31;;;;;;;7.05;2.28;;;7.30;79.80;;;;;;5077174;28;20036;-62
2022/04/08 08:01:57;;;;;;;4.80;2.40;;;7.30;79.00;;;;;;5067236;28;20036;-59
2022/04/08 08:04:23;;;;;;;6.40;2.38;;;7.30;78.90;;;;;;5081448;28;20024;-62
2022/04/08 08:06:48;;;;;;;7.15;3.03;;;7.30;78.80;;;;;;5075184;28;20099;-60
2022/04/08 08:09:14;;;;;;;8.57;2.17;;;7.40;78.90;;;;;;5067727;28;20024;-61
2022/04/08 08:11:40;;;;;;;4.95;2.10;;;7.50;78.60;;;;;;5090402;28;20089;-60
2022/04/08 08:14:06;;;;;;;8.30;2.78;;;7.50;78.20;;;;;;5075631;28;20036;-60
2022/04/08 08:16:31;;;;;;;6.90;2.20;;;7.60;77.70;;;;;;5063233;28;20038;-60
2022/04/08 08:18:57;;;;;;;9.02;2.50;;;7.60;77.50;;;;;;5091679;28;20118;-60
2022/04/08 08:21:24;;;;;;;6.70;2.50;;;7.50;77.80;;;;;;5081037;28;20348;-61
2022/04/08 08:23:50;;;;;;;6.60;2.25;;;7.60;76.60;;;;;;5083554;28;20494;-61
2022/04/08 08:26:16;;;;;;;4.32;2.05;;;7.50;75.90;;;;;;5059940;28;20115;-61
2022/04/08 08:28:41;;;;;;;10.95;2.10;;;7.60;75.90;;;;;;5061651;28;20591;-61
2022/04/08 08:31:07;;;;;;;9.57;2.47;;;7.60;76.00;;;;;;5069889;28;20051;-61
2022/04/08 08:33:33;;;;;;;5.50;2.20;;;7.60;75.40;;;;;;5077355;28;20046;-62
2022/04/08 08:35:59;;;;;;;9.10;2.50;;;7.70;74.90;;;;;;5089971;28;20474;-60
2022/04/08 08:38:24;;;;;;;8.95;2.92;;;7.70;74.80;;;;;;5079662;28;20112;-61
2022/04/08 08:40:51;;;;;;;7.60;1.90;;;7.60;74.30;;;;;;5088686;28;20036;-61
2022/04/08 08:43:17;;;;;;;5.80;1.90;;;7.70;74.20;;;;;;5090341;28;20099;-59
2022/04/08 08:45:48;;;;;;;10.18;2.10;;;7.70;74.00;;;;;;5082282;28;20642;-61
2022/04/08 08:48:17;;;;;;;6.82;2.05;;;7.70;73.70;;;;;;5072396;28;20111;-61
2022/04/08 08:50:47;;;;;;;5.32;2.08;;;7.80;73.70;;;;;;5065660;28;20118;-60
2022/04/08 08:53:18;;;;;;;7.20;1.50;;;7.80;73.90;;;;;;5074949;28;20020;-61
2022/04/08 08:55:44;;;;;;;10.10;2.45;;;7.90;74.20;;;;;;5079093;28;20052;-61
2022/04/08 08:58:10;;;;;;;10.75;2.20;;;8.00;74.10;;;;;;5080059;28;20052;-61
2022/04/08 09:00:36;;;;;;;7.63;2.10;;;8.00;73.50;;;;;;5067914;28;20055;-59
2022/04/08 09:03:03;;;;;;;5.38;1.65;;;8.10;73.10;;;;;;5079129;28;20135;-60
2022/04/08 09:05:29;;;;;;;8.32;2.00;;;8.10;73.40;;;;;;5086109;28;20073;-61
2022/04/08 09:08:00;;;;;;;9.60;2.45;;;8.20;73.10;;;;;;5078245;28;20107;-61
2022/04/08 09:10:36;;;;;;;5.18;1.83;;;8.20;72.90;;;;;;5080476;28;20150;-58
2022/04/08 09:13:04;;;;;;;4.32;1.95;;;8.20;72.90;;;;;;5086167;28;20501;-61
2022/04/08 09:15:31;;;;;;;8.98;2.40;;;8.30;73.20;;;;;;5088234;28;20099;-61
2022/04/08 09:18:09;;;;;;;6.45;1.95;;;8.40;73.00;;;;;;5086637;28;20116;-61
2022/04/08 09:20:39;;;;;;;7.68;2.15;;;8.50;72.90;;;;;;5091420;28;20147;-61
2022/04/08 09:23:07;;;;;;;5.28;2.00;;;8.60;72.50;;;;;;5083841;28;20152;-62
2022/04/08 09:25:34;;;;;;;6.22;1.98;;;8.60;72.20;;;;;;5066502;28;20032;-61
2022/04/08 09:28:06;;;;;;;5.90;2.38;;;8.70;71.50;;;;;;5044479;28;20518;-60
2022/04/08 09:30:32;;;;;;;6.40;2.20;;;8.70;71.80;;;;;;5085028;28;20474;-60
2022/04/08 09:32:58;;;;;;;10.90;2.60;;;8.70;72.10;;;;;;5072607;28;20064;-60
2022/04/08 09:35:26;;;;;;;5.82;2.10;;;8.80;72.00;;;;;;5085554;28;20032;-61
2022/04/08 09:38:01;;;;;;;7.88;2.50;;;8.80;71.80;;;;;;5094633;28;20032;-60
2022/04/08 09:40:38;;;;;;;4.57;2.00;;;8.80;71.70;;;;;;5065226;28;20047;-61
2022/04/08 09:43:04;;;;;;;9.50;2.58;;;8.90;71.60;;;;;;5085637;28;20497;-61
2022/04/08 09:45:30;;;;;;;6.97;2.40;;;8.90;70.80;;;;;;5085324;28;20137;-62
2022/04/08 09:48:00;;;;;;;6.65;2.25;;;8.90;70.50;;;;;;5070299;28;20513;-62
2022/04/08 09:50:26;;;;;;;7.75;2.70;;;8.90;71.20;;;;;;5084073;28;21367;-61
2022/04/08 09:52:53;;;;;;;12.07;2.47;;;8.90;70.30;;;;;;5079372;28;20024;-61
2022/04/08 09:55:20;;;;;;;12.65;2.45;;;8.90;70.20;;;;;;5086613;28;20043;-60
2022/04/08 09:57:49;;;;;;;11.18;2.92;;;9.00;70.50;;;;;;5067677;28;20526;-62
2022/04/08 10:00:15;;;;;;;8.65;2.65;;;9.00;69.80;;;;;;5084339;28;20036;-62
2022/04/08 10:02:45;;;;;;;5.75;1.95;;;9.00;69.80;;;;;;5087667;28;20078;-62
2022/04/08 10:05:11;;;;;;;13.10;2.60;;;8.90;69.50;;;;;;5097046;28;20062;-60
2022/04/08 10:07:39;;;;;;;9.52;2.25;;;8.90;69.10;;;;;;5086285;28;20114;-60
2022/04/08 10:10:18;;;;;;;5.30;2.28;;;8.90;68.70;;;;;;5083896;28;20032;-60
2022/04/08 10:12:55;;;;;;;7.45;2.13;;;8.80;68.80;;;;;;5077570;28;20024;-62
2022/04/08 10:15:31;;;;;;;5.95;1.60;;;8.90;69.00;;;;;;5068448;28;20043;-60
2022/04/08 10:17:59;;;;;;;7.80;3.08;;;8.90;68.70;;;;;;5066018;28;20043;-62
2022/04/08 10:20:27;;;;;;;11.68;3.00;;;8.90;68.90;;;;;;5086750;28;20115;-61
2022/04/08 10:23:04;;;;;;;7.57;2.10;;;9.00;68.70;;;;;;5080132;28;20047;-62
2022/04/08 10:25:37;;;;;;;11.70;2.30;;;9.00;69.00;;;;;;5082776;28;20097;-61
2022/04/08 10:28:03;;;;;;;10.45;2.78;;;9.00;69.00;;;;;;5067402;28;20020;-60
2022/04/08 10:30:32;;;;;;;5.13;2.17;;;9.10;68.80;;;;;;5085483;28;20020;-60
2022/04/08 10:33:07;;;;;;;7.22;2.08;;;9.10;68.60;;;;;;5052671;28;20039;-61
2022/04/08 10:35:34;;;;;;;6.72;2.65;;;9.10;68.20;;;;;;5066060;28;20123;-61
2022/04/08 10:38:01;;;;;;;9.52;2.40;;;9.10;68.00;;;;;;5081739;28;20028;-61
2022/04/08 10:40:32;;;;;;;6.40;2.22;;;9.10;68.20;;;;;;5083117;28;20032;-61
2022/04/08 10:43:00;;;;;;;5.68;2.40;;;9.10;68.20;;;;;;5088134;28;20035;-61
2022/04/08 10:45:25;;;;;;;7.35;2.15;;;9.10;68.20;;;;;;5095782;28;20070;-61
2022/04/08 10:47:51;;;;;;;8.20;2.65;;;9.10;68.40;;;;;;5087163;28;20050;-60
2022/04/08 10:50:24;;;;;;;8.77;2.55;;;9.20;68.30;;;;;;5086492;28;20031;-61
2022/04/08 10:52:50;;;;;;;9.32;2.30;;;9.20;68.10;;;;;;5081292;28;20043;-61
2022/04/08 10:55:16;;;;;;;9.98;2.80;;;9.20;68.40;;;;;;5090746;28;20115;-60
2022/04/08 10:57:43;;;;;;;11.13;2.60;;;9.20;68.00;;;;;;5088083;28;20119;-60
2022/04/08 11:00:14;;;;;;;6.50;2.45;;;9.30;68.10;;;;;;5070014;28;20043;-61
2022/04/08 11:02:42;;;;;;;12.80;3.33;;;9.40;68.20;;;;;;5067067;28;20088;-61
2022/04/08 11:05:10;;;;;;;7.75;2.55;;;9.50;67.70;;;;;;5075903;28;20487;-60
2022/04/08 11:07:44;;;;;;;6.90;2.58;;;9.50;67.90;;;;;;5081090;28;20035;-61
2022/04/08 11:10:11;;;;;;;9.82;3.13;;;9.50;67.60;;;;;;5063859;28;20020;-60
2022/04/08 11:12:48;;;;;;;8.68;2.72;;;9.50;67.50;;;;;;5080185;28;20415;-60
2022/04/08 11:15:18;;;;;;;5.45;2.67;;;9.50;67.30;;;;;;5085688;28;20024;-60
2022/04/08 11:17:46;;;;;;;9.45;3.13;;;9.50;67.30;;;;;;5096330;28;20108;-59
2022/04/08 11:20:14;;;;;;;7.00;2.63;;;9.50;67.00;;;;;;5088021;28;20036;-60
2022/04/08 11:22:41;;;;;;;5.25;2.40;;;9.50;66.70;;;;;;5087780;28;20036;-60
2022/04/08 11:25:08;;;;;;;15.15;3.33;;;9.50;66.30;;;;;;5067279;28;20105;-61
2022/04/08 11:27:34;;;;;;;7.10;2.95;;;9.50;66.40;;;;;;5086271;28;20028;-60
2022/04/08 11:29:59;;;;;;;8.38;2.90;;;9.50;66.30;;;;;;5084957;28;20039;-60
2022/04/08 11:32:30;;;;;;;5.68;2.90;;;9.50;66.50;;;;;;5091055;28;20036;-61
2022/04/08 11:34:56;;;;;;;6.90;2.88;;;9.50;66.80;;;;;;5068754;28;20486;-60
2022/04/08 11:37:26;;;;;;;8.70;3.10;;;9.50;67.10;;;;;;5088805;28;20036;-59
2022/04/08 11:39:59;;;;;;;9.93;2.80;;;9.60;67.00;;;;;;5092240;28;20028;-60
2022/04/08 11:42:26;;;;;;;8.57;3.05;;;9.60;66.90;;;;;;5092312;28;20429;-61
2022/04/08 11:44:52;;;;;;;11.35;3.47;;;9.60;66.70;;;;;;5092729;28;20066;-61
2022/04/08 11:47:18;;;;;;;7.88;2.75;;;9.60;66.70;;;;;;5082864;28;20122;-61
2022/04/08 11:49:44;;;;;;;8.98;2.55;;;9.60;66.20;;;;;;5072437;28;20495;-61
2022/04/08 11:52:10;;;;;;;6.38;2.90;;;9.60;66.90;;;;;;5089439;28;20028;-61
2022/04/08 11:54:39;;;;;;;10.20;3.78;;;9.60;66.40;;;;;;5092504;28;20435;-60
2022/04/08 11:57:07;;;;;;;8.15;2.92;;;9.60;66.60;;;;;;5092744;28;20078;-60
2022/04/08 11:59:34;;;;;;;9.13;3.15;;;9.60;66.80;;;;;;5084138;28;20136;-60
2022/04/08 12:02:00;;;;;;;6.07;2.65;;;9.60;66.50;;;;;;5091943;28;20043;-61
2022/04/08 12:04:27;;;;;;;11.57;3.28;;;9.60;66.90;;;;;;5079240;28;20033;-60
2022/04/08 12:06:52;;;;;;;7.85;3.00;;;9.70;66.80;;;;;;5087583;28;20621;-59
2022/04/08 12:09:22;;;;;;;8.93;3.22;;;9.80;66.60;;;;;;5085785;28;20099;-60
2022/04/08 12:11:53;;;;;;;8.27;3.10;;;9.90;66.70;;;;;;5093993;28;20037;-61
2022/04/08 12:14:20;;;;;;;8.90;3.20;;;9.90;66.70;;;;;;5088939;28;20111;-62
2022/04/08 12:16:48;;;;;;;9.65;2.92;;;10.00;66.20;;;;;;5088112;28;20024;-60
2022/04/08 12:19:16;;;;;;;6.60;3.13;;;10.00;65.80;;;;;;5090318;28;20032;-60
2022/04/08 12:21:43;;;;;;;9.15;2.85;;;10.00;66.20;;;;;;5091428;28;20517;-60
2022/04/08 12:24:10;;;;;;;7.10;3.22;;;9.90;66.10;;;;;;5078565;28;20383;-61
2022/04/08 12:26:38;;;;;;;8.95;3.33;;;9.90;66.00;;;;;;5100815;28;20722;-60
2022/04/08 12:29:05;;;;;;;6.05;2.95;;;9.90;66.10;;;;;;5095201;28;20020;-61
2022/04/08 12:31:31;;;;;;;5.60;2.65;;;9.90;66.50;;;;;;5089988;28;20115;-60
2022/04/08 12:33:57;;;;;;;9.60;2.88;;;9.90;66.00;;;;;;5071797;28;20119;-61
2022/04/08 12:36:23;;;;;;;9.15;2.55;;;9.90;65.30;;;;;;5090435;28;20035;-61
2022/04/08 12:38:48;;;;;;;7.32;2.88;;;9.80;65.10;;;;;;5070448;28;20069;-61
2022/04/08 12:41:14;;;;;;;7.07;2.30;;;9.80;64.80;;;;;;5095659;28;20073;-59
2022/04/08 12:43:40;;;;;;;9.30;3.20;;;9.80;65.40;;;;;;5057801;28;20103;-59
2022/04/08 12:46:06;;;;;;;8.85;2.70;;;9.80;65.50;;;;;;5092885;28;20386;-59
2022/04/08 12:48:32;;;;;;;6.75;3.10;;;9.90;65.70;;;;;;5070161;28;20130;-61
2022/04/08 12:50:59;;;;;;;8.10;2.60;;;9.90;65.50;;;;;;5086858;28;20032;-60
2022/04/08 12:53:28;;;;;;;6.82;2.72;;;10.00;65.60;;;;;;5090103;28;20032;-60